Route Details

Aircraft Information
Group: North America Fleet
Types: B738, B752, B762, B763
Route Data
Distance: 574nm
Duration: 2h 00m
Origin METAR: CYWG 080000Z 19010KT 15SM FEW230 M05/M07 A2980 RMK CI1 SLP113
Dest. METAR: KRFD 072354Z 25005KT 10SM CLR 02/M03 A3015 RMK AO2 SLP216 T00221033 10050 20022 53020
Freight Data
(for Feb 8, 2023)
Load Factor:
75%
Manifested Cargo: 51,701lbs
Financial History
Total Freight: 61,916lbs
Average Load: 0lbs/flt
Fuel Used: 24,812lbs
Avg. Fuel Used: 0lbs/flt
Fuel Expense: $13,206
Avg. Fuel Expense: $0
Avg. Fuel Cost: $0/lbs
Total Gross Income: $157,886
Pilot Pay: $348
Total Expenses: $32,015
Total Revenue: $111,711
Average Revenue: $0

Capitol Logistics 353




CYWG
Winnipeg / James Armstrong Richardson International Airport
Winnipeg, CA
KRFD
Chicago/Rockford International Airport
Rockford, US

Activity Log

Date Flight Route Aircraft Duration
01/10/2023 CPX353 DCT ELETO DCT GROLE DCT GEP J36 ODI J30 BRIBE DCT B738 1h 41m
07/23/2022 CPX353 Not Available B763 1h 34m